Terminal Aerodrome Forecast
Issued by NWS Paducah, KY

Home | Current Version | Previous Version | Graphics & Text | Print | Product List | Glossary On
Versions: 1 2 3 4 5 6 7 8 9 10 11 12 13 14 15 16 17 18 19
000
FTUS43 KPAH 251150 CCA
TAFPAH
TAF COR
KPAH 251150Z 2512/2612 21004KT P6SM BKN040 BKN250
      TEMPO 2512/2514 00000KT 6SM BR BKN028 OVC040
     FM251400 21005KT P6SM BKN012
     FM251600 22005KT P6SM VCTS BKN040CB
     FM252100 00000KT P6SM FEW070 BKN250=

USA.gov is the U.S. government's official web portal to all federal, state and local government web resources and services.